createdAt,value
2024-04-01T00:00:32.538Z,22.6
2024-04-01T00:15:32.710Z,22.6
2024-04-01T00:30:32.503Z,22.6
2024-04-01T00:45:32.776Z,22.6
2024-04-01T01:00:32.377Z,22.6
2024-04-01T01:15:32.234Z,22.6
2024-04-01T01:30:32.553Z,22.6
2024-04-01T01:45:32.773Z,22.6
2024-04-01T02:00:32.711Z,22.6
2024-04-01T02:15:32.953Z,22.6
2024-04-01T02:30:32.206Z,22.6
2024-04-01T02:45:32.225Z,22.6
2024-04-01T03:00:33.166Z,22.6
2024-04-01T03:15:32.394Z,22.6
2024-04-01T03:30:32.916Z,22.7
2024-04-01T03:45:33.006Z,22.7
2024-04-01T04:00:32.474Z,22.7
2024-04-01T04:15:32.811Z,22.7
2024-04-01T04:30:32.381Z,22.7
2024-04-01T04:45:32.341Z,22.7
2024-04-01T05:00:32.546Z,22.7
2024-04-01T05:15:32.509Z,22.8
2024-04-01T05:30:32.378Z,22.8
2024-04-01T05:45:32.999Z,22.8
2024-04-01T06:00:33.566Z,22.8
2024-04-01T06:15:32.958Z,22.8
2024-04-01T06:30:32.069Z,22.9
2024-04-01T06:45:32.183Z,22.9
2024-04-01T07:00:32.631Z,23
2024-04-01T07:15:33.252Z,23
2024-04-01T07:30:33.729Z,23.2
2024-04-01T07:45:32.670Z,23.2
2024-04-01T08:00:33.142Z,23.2
2024-04-01T08:15:32.695Z,23.2
2024-04-01T08:30:32.334Z,23.2
2024-04-01T08:45:32.987Z,23.2
2024-04-01T09:00:33.188Z,23.2
2024-04-01T09:15:33.181Z,23.1
2024-04-01T09:30:32.614Z,23.1
2024-04-01T09:45:32.314Z,23.2
2024-04-01T10:00:32.777Z,23.2
2024-04-01T10:15:32.404Z,23.2
2024-04-01T10:30:33.352Z,23.2
2024-04-01T10:45:32.607Z,23.2
2024-04-01T11:00:33.362Z,23.2
2024-04-01T11:15:33.106Z,23.2
2024-04-01T11:30:32.240Z,23.2
2024-04-01T11:45:32.218Z,23.3
2024-04-01T12:00:32.541Z,23.3
2024-04-01T12:15:32.941Z,23.3
2024-04-01T12:30:34.663Z,23.3
2024-04-01T12:45:32.885Z,23.3
2024-04-01T13:00:32.462Z,23.3
2024-04-01T13:15:32.807Z,23.4
2024-04-01T13:30:32.747Z,23.4
2024-04-01T13:45:32.537Z,23.4
2024-04-01T14:00:33.461Z,23.4
2024-04-01T14:15:33.174Z,23.4
2024-04-01T14:30:32.918Z,23.4
2024-04-01T14:45:32.417Z,23.4
2024-04-01T15:00:33.056Z,23.4
2024-04-01T15:15:32.375Z,23.4
2024-04-01T15:30:33.489Z,23.4
2024-04-01T15:45:32.076Z,23.4
2024-04-01T16:00:33.487Z,23.4
2024-04-01T16:15:32.968Z,23.4
2024-04-01T16:30:33.140Z,23.4
2024-04-01T16:45:32.784Z,23.4
2024-04-01T17:00:33.428Z,23.4
2024-04-01T17:15:32.584Z,23.3
2024-04-01T17:30:32.726Z,23.3
2024-04-01T17:45:32.243Z,23.3
2024-04-01T18:00:32.814Z,23.3
2024-04-01T18:15:32.705Z,23.3
2024-04-01T18:30:32.665Z,23.3
2024-04-01T18:45:32.735Z,23.2
2024-04-01T19:00:33.199Z,23.2
2024-04-01T19:15:32.355Z,23.2
2024-04-01T19:30:32.882Z,23.2
2024-04-01T19:45:32.236Z,23.2
2024-04-01T20:00:32.653Z,23.2
2024-04-01T20:15:32.932Z,23.2
2024-04-01T20:30:32.648Z,23.1
2024-04-01T20:45:32.602Z,23.1
2024-04-01T21:00:33.039Z,23.1
2024-04-01T21:15:32.300Z,23.1
2024-04-01T21:30:32.205Z,23.1
2024-04-01T21:45:32.750Z,23.1
2024-04-01T22:00:33.338Z,23.1
2024-04-01T22:15:32.781Z,23.1
2024-04-01T22:30:32.464Z,23.1
2024-04-01T22:45:32.801Z,23.1
2024-04-01T23:00:33.274Z,23
2024-04-01T23:15:32.608Z,23
2024-04-01T23:30:32.835Z,23
2024-04-01T23:45:32.842Z,23
